Time;durP1;ratioP1;P1;durP2;ratioP2;P2;SDS_P1;SDS_P2;PMS_P1;PMS_P2;Temp;Humidity;BMP_temperature;BMP_pressure;BME280_temperature;BME280_humidity;BME280_pressure;Samples;Min_cycle;Max_cycle;Signal;HPM_P1;HPM_P2
2022/03/12 00:00:31;;;;;;;12.00;6.93;;;9.00;99.90;;;;;;5036019;28;20192;-42
2022/03/12 00:02:57;;;;;;;10.63;6.47;;;9.00;99.90;;;;;;5036218;28;20710;-43
2022/03/12 00:05:25;;;;;;;15.73;7.50;;;9.00;99.90;;;;;;5035544;28;20287;-43
2022/03/12 00:07:51;;;;;;;15.70;7.17;;;9.00;99.90;;;;;;5035851;28;20201;-42
2022/03/12 00:10:19;;;;;;;11.13;6.53;;;9.00;99.90;;;;;;5035467;28;20172;-40
2022/03/12 00:12:44;;;;;;;13.97;7.20;;;9.00;99.90;;;;;;5035774;28;20207;-41
2022/03/12 00:15:12;;;;;;;13.63;7.07;;;10.90;99.90;;;;;;5035685;28;20660;-41
2022/03/12 00:17:41;;;;;;;18.30;6.37;;;9.00;99.90;;;;;;5034880;28;20223;-40
2022/03/12 00:20:12;;;;;;;19.23;6.43;;;9.00;99.90;;;;;;5035408;28;20214;-41
2022/03/12 00:22:39;;;;;;;10.30;6.63;;;9.00;99.90;;;;;;5035585;28;20172;-43
2022/03/12 00:25:07;;;;;;;10.40;6.90;;;8.90;99.90;;;;;;5035581;28;20574;-40
2022/03/12 00:27:32;;;;;;;8.80;5.87;;;9.00;99.90;;;;;;5017280;28;20198;-40
2022/03/12 00:30:00;;;;;;;12.27;6.70;;;9.00;99.90;;;;;;5001069;28;20184;-39
2022/03/12 00:32:27;;;;;;;10.97;6.63;;;9.00;99.90;;;;;;5035189;28;20172;-40
2022/03/12 00:34:53;;;;;;;11.27;6.03;;;9.00;99.90;;;;;;5035109;28;20548;-42
2022/03/12 00:37:19;;;;;;;10.83;6.73;;;8.90;99.90;;;;;;5035198;28;20201;-40
2022/03/12 00:39:47;;;;;;;10.87;6.47;;;8.90;99.90;;;;;;5034889;28;20177;-42
2022/03/12 00:42:13;;;;;;;9.43;6.40;;;8.90;99.90;;;;;;5034873;28;20672;-41
2022/03/12 00:44:39;;;;;;;10.17;6.00;;;8.90;99.90;;;;;;5017465;28;20209;-43
2022/03/12 00:47:05;;;;;;;10.83;6.20;;;9.00;99.90;;;;;;5034980;28;20197;-39
2022/03/12 00:49:30;;;;;;;8.73;4.90;;;8.90;99.90;;;;;;5034792;28;20195;-42
2022/03/12 00:51:56;;;;;;;6.47;3.77;;;8.90;99.90;;;;;;5034819;28;20588;-40
2022/03/12 00:54:22;;;;;;;9.67;5.93;;;8.90;99.90;;;;;;5035029;28;20180;-38
2022/03/12 00:56:47;;;;;;;11.87;6.20;;;8.90;99.90;;;;;;5034580;28;20518;-41
2022/03/12 00:59:13;;;;;;;8.73;6.07;;;8.90;99.90;;;;;;5034848;28;20202;-41
2022/03/12 01:01:39;;;;;;;10.33;7.20;;;8.90;99.90;;;;;;5034806;28;20176;-40
2022/03/12 01:04:05;;;;;;;14.20;7.30;;;8.90;99.90;;;;;;5034451;28;20260;-40
2022/03/12 01:06:34;;;;;;;11.27;6.87;;;8.90;99.90;;;;;;5034390;28;20205;-42
2022/03/12 01:09:00;;;;;;;10.33;6.40;;;8.80;99.90;;;;;;5034586;28;20275;-39
2022/03/12 01:11:26;;;;;;;12.97;6.13;;;8.80;99.90;;;;;;5034520;28;20265;-39
2022/03/12 01:13:52;;;;;;;15.30;6.73;;;8.80;99.90;;;;;;5034820;28;20659;-38
2022/03/12 01:16:18;;;;;;;9.60;6.17;;;8.80;99.90;;;;;;5034526;28;20185;-41
2022/03/12 01:18:44;;;;;;;10.77;6.00;;;8.80;99.90;;;;;;5034167;28;20193;-41
2022/03/12 01:21:18;;;;;;;12.33;6.87;;;8.80;99.90;;;;;;5034123;28;20177;-39
2022/03/12 01:23:48;;;;;;;13.37;5.83;;;8.70;99.90;;;;;;5034465;28;20165;-40
2022/03/12 01:26:15;;;;;;;9.47;6.13;;;8.70;99.90;;;;;;5034005;28;20207;-41
2022/03/12 01:28:41;;;;;;;11.30;6.00;;;8.80;99.90;;;;;;5033031;28;20199;-40
2022/03/12 01:31:07;;;;;;;10.80;5.87;;;8.80;99.90;;;;;;5033945;28;20181;-40
2022/03/12 01:33:33;;;;;;;10.37;6.27;;;8.70;99.90;;;;;;5033802;28;20218;-41
2022/03/12 01:35:59;;;;;;;10.33;6.60;;;8.70;99.90;;;;;;5034112;28;20181;-38
2022/03/12 01:38:47;;;;;;;14.10;7.27;;;8.70;99.90;;;;;;5033806;28;20204;-41
2022/03/12 01:41:14;;;;;;;12.20;5.50;;;8.70;99.90;;;;;;5034149;28;20572;-43
2022/03/12 01:43:43;;;;;;;16.20;7.73;;;8.70;99.90;;;;;;5034050;28;20188;-40
2022/03/12 01:46:11;;;;;;;11.80;7.00;;;8.70;99.90;;;;;;5033656;28;20231;-40
2022/03/12 01:48:49;;;;;;;9.23;6.00;;;8.70;99.90;;;;;;5033691;28;20613;-43
2022/03/12 01:51:15;;;;;;;10.13;6.83;;;8.60;99.90;;;;;;5033987;28;20253;-42
2022/03/12 01:53:41;;;;;;;10.07;6.63;;;8.60;99.90;;;;;;5034046;28;20184;-43
2022/03/12 01:56:06;;;;;;;9.77;6.73;;;8.60;99.90;;;;;;5033553;28;20177;-41
2022/03/12 01:58:33;;;;;;;11.00;6.23;;;8.60;99.90;;;;;;5033522;28;20211;-41
2022/03/12 02:01:00;;;;;;;11.13;6.47;;;8.50;99.90;;;;;;5033758;28;20189;-42
2022/03/12 02:03:29;;;;;;;9.03;5.03;;;8.50;99.90;;;;;;5033491;28;20667;-43
2022/03/12 02:05:58;;;;;;;11.17;6.00;;;8.50;99.90;;;;;;5033447;28;20200;-41
2022/03/12 02:08:25;;;;;;;21.83;6.60;;;8.50;99.90;;;;;;5033351;28;20193;-41
2022/03/12 02:10:53;;;;;;;11.87;6.50;;;8.50;99.90;;;;;;5033405;28;20184;-41
2022/03/12 02:13:19;;;;;;;11.47;7.00;;;8.50;99.90;;;;;;5033659;28;20192;-40
2022/03/12 02:15:45;;;;;;;10.73;6.20;;;8.50;99.90;;;;;;5033842;28;20181;-43
2022/03/12 02:18:13;;;;;;;8.13;5.37;;;8.40;99.90;;;;;;5033245;28;20207;-41
2022/03/12 02:20:40;;;;;;;10.90;6.43;;;8.40;99.90;;;;;;5033847;28;20274;-40
2022/03/12 02:23:10;;;;;;;11.07;6.63;;;8.40;99.90;;;;;;5033301;28;20181;-41
2022/03/12 02:25:36;;;;;;;12.60;6.43;;;8.40;99.90;;;;;;5033328;28;20235;-41
2022/03/12 02:28:09;;;;;;;11.67;6.73;;;8.40;99.90;;;;;;5033456;28;20638;-42
2022/03/12 02:30:47;;;;;;;11.20;7.17;;;8.30;99.90;;;;;;5046733;28;20264;-42
2022/03/12 02:33:13;;;;;;;11.43;6.70;;;8.30;99.90;;;;;;5026644;28;20200;-42
2022/03/12 02:35:40;;;;;;;10.53;6.57;;;8.40;99.90;;;;;;5033311;28;20183;-42
2022/03/12 02:38:07;;;;;;;10.53;7.07;;;8.30;99.90;;;;;;5033483;28;20228;-42
2022/03/12 02:40:34;;;;;;;13.90;7.37;;;8.30;99.90;;;;;;5036158;28;20180;-43
2022/03/12 02:43:01;;;;;;;12.27;7.00;;;8.30;99.90;;;;;;5037149;28;20641;-42
2022/03/12 02:45:28;;;;;;;14.47;7.10;;;8.30;99.90;;;;;;5037355;28;20629;-42
2022/03/12 02:47:55;;;;;;;11.77;7.00;;;8.20;99.90;;;;;;5037297;28;20197;-42
2022/03/12 02:50:22;;;;;;;10.43;6.67;;;8.20;99.90;;;;;;5037378;28;20184;-42
2022/03/12 02:52:48;;;;;;;9.83;6.03;;;8.20;99.90;;;;;;5038934;28;20203;-40
2022/03/12 02:55:21;;;;;;;13.97;7.17;;;8.20;99.90;;;;;;5038575;28;20181;-42
2022/03/12 02:57:47;;;;;;;12.93;7.00;;;8.20;99.90;;;;;;5020409;28;20246;-41
2022/03/12 03:00:14;;;;;;;10.20;6.53;;;8.20;99.90;;;;;;5037298;28;20196;-42
2022/03/12 03:02:41;;;;;;;11.83;6.70;;;8.20;99.90;;;;;;5037166;28;20177;-40
2022/03/12 03:05:36;;;;;;;11.47;6.30;;;8.10;99.90;;;;;;5036907;28;20220;-41
2022/03/12 03:08:04;;;;;;;9.70;4.00;;;8.20;99.90;;;;;;5018892;28;20746;-40
2022/03/12 03:10:34;;;;;;;13.63;6.73;;;8.20;99.90;;;;;;5036685;28;20181;-41
2022/03/12 03:13:18;;;;;;;13.00;7.13;;;8.20;99.90;;;;;;5036596;28;20597;-42
2022/03/12 03:15:54;;;;;;;11.03;6.30;;;8.20;99.90;;;;;;5037181;28;20169;-41
2022/03/12 03:18:23;;;;;;;12.37;6.70;;;8.20;99.90;;;;;;5036747;28;20208;-40
2022/03/12 03:20:50;;;;;;;10.87;6.80;;;8.20;99.90;;;;;;5036739;28;20335;-40
2022/03/12 03:23:16;;;;;;;13.70;6.83;;;8.20;99.90;;;;;;5036653;28;20548;-41
2022/03/12 03:25:41;;;;;;;11.67;7.60;;;8.20;99.90;;;;;;5036496;28;20213;-39
2022/03/12 03:28:08;;;;;;;15.23;7.50;;;8.20;99.90;;;;;;5036245;28;20197;-38
2022/03/12 03:30:36;;;;;;;17.13;7.60;;;8.20;99.90;;;;;;5036354;28;20165;-40
2022/03/12 03:33:05;;;;;;;15.00;8.00;;;8.20;99.90;;;;;;5036048;28;20730;-42
2022/03/12 03:35:31;;;;;;;11.37;6.47;;;8.10;99.90;;;;;;5036138;28;20183;-42
2022/03/12 03:37:57;;;;;;;13.87;8.13;;;8.10;99.90;;;;;;5036132;28;20280;-40
2022/03/12 03:40:24;;;;;;;15.50;7.37;;;8.00;99.90;;;;;;5036275;28;20176;-41
2022/03/12 03:42:49;;;;;;;12.03;7.50;;;8.00;99.90;;;;;;5036037;28;20687;-40
2022/03/12 03:45:29;;;;;;;13.10;7.57;;;8.00;99.90;;;;;;5035963;28;20201;-40
2022/03/12 03:47:56;;;;;;;14.27;7.43;;;7.90;99.90;;;;;;5036090;28;20201;-41
2022/03/12 03:50:25;;;;;;;11.13;7.47;;;7.90;99.90;;;;;;5035519;28;20177;-41
2022/03/12 03:53:03;;;;;;;11.73;7.47;;;7.90;99.90;;;;;;5035329;28;20207;-41
2022/03/12 03:55:33;;;;;;;14.10;7.70;;;7.80;99.90;;;;;;5036219;28;20192;-42
2022/03/12 03:58:00;;;;;;;11.20;7.17;;;7.80;99.90;;;;;;5035709;28;20212;-42
2022/03/12 04:00:26;;;;;;;13.67;7.67;;;7.80;99.90;;;;;;5017906;28;20189;-40
2022/03/12 04:03:04;;;;;;;13.80;8.27;;;7.80;99.90;;;;;;5035777;28;20255;-41
2022/03/12 04:05:38;;;;;;;12.33;7.63;;;7.80;99.90;;;;;;5035912;28;20204;-38
2022/03/12 04:08:06;;;;;;;12.23;7.70;;;7.80;99.90;;;;;;5035897;28;20216;-40
2022/03/12 04:10:33;;;;;;;14.87;7.07;;;7.70;99.90;;;;;;5035951;28;20181;-40
2022/03/12 04:12:59;;;;;;;21.03;7.87;;;7.70;99.90;;;;;;5036015;28;20180;-43
2022/03/12 04:15:25;;;;;;;10.37;5.87;;;7.70;99.90;;;;;;5035755;28;20189;-40
2022/03/12 04:17:52;;;;;;;9.73;6.73;;;7.70;99.90;;;;;;5035484;28;20205;-41
2022/03/12 04:20:18;;;;;;;11.83;7.17;;;7.70;99.90;;;;;;5035522;28;20184;-43
2022/03/12 04:22:48;;;;;;;14.77;7.03;;;7.70;99.90;;;;;;5035966;28;20334;-40
2022/03/12 04:25:15;;;;;;;16.07;7.20;;;7.60;99.90;;;;;;5035845;28;20575;-41
2022/03/12 04:27:44;;;;;;;9.83;6.50;;;7.60;99.90;;;;;;5035553;28;20193;-41
2022/03/12 04:30:12;;;;;;;10.97;7.10;;;7.50;99.90;;;;;;5035965;28;20581;-42
2022/03/12 04:32:40;;;;;;;12.93;7.73;;;7.50;99.90;;;;;;5037382;28;20193;-42
2022/03/12 04:35:06;;;;;;;11.50;6.60;;;7.50;99.90;;;;;;5039955;28;20173;-42
2022/03/12 04:37:34;;;;;;;10.77;6.83;;;7.40;99.90;;;;;;5049174;28;20273;-42
2022/03/12 04:39:59;;;;;;;13.47;7.60;;;7.40;99.90;;;;;;5055094;28;20169;-40
2022/03/12 04:42:25;;;;;;;10.27;7.07;;;7.30;99.90;;;;;;5037801;28;20660;-39
2022/03/12 04:44:51;;;;;;;14.27;7.13;;;7.30;99.90;;;;;;5034892;28;20201;-42
2022/03/12 04:47:22;;;;;;;10.03;6.33;;;7.20;99.90;;;;;;5035248;28;20201;-40
2022/03/12 04:49:47;;;;;;;11.70;6.50;;;7.20;99.90;;;;;;5035053;28;20169;-40
2022/03/12 04:52:13;;;;;;;14.70;7.30;;;7.20;99.90;;;;;;5034743;28;20191;-40
2022/03/12 04:54:39;;;;;;;15.03;7.43;;;7.10;99.90;;;;;;5034968;28;20191;-40
2022/03/12 04:57:05;;;;;;;16.13;7.00;;;7.00;99.90;;;;;;5034543;28;20203;-43
2022/03/12 04:59:31;;;;;;;11.77;7.03;;;7.00;99.90;;;;;;5034900;28;20226;-42
2022/03/12 05:01:59;;;;;;;11.90;7.17;;;6.90;99.90;;;;;;5034895;28;20181;-39
2022/03/12 05:04:25;;;;;;;13.00;6.07;;;6.90;99.90;;;;;;5034292;28;20295;-41
2022/03/12 05:06:51;;;;;;;15.13;7.10;;;6.80;99.90;;;;;;5034870;28;20263;-41
2022/03/12 05:09:19;;;;;;;13.70;6.90;;;6.90;99.90;;;;;;5034392;28;20181;-39
2022/03/12 05:11:44;;;;;;;7.93;5.57;;;6.80;99.90;;;;;;5034355;28;20177;-41
2022/03/12 05:14:15;;;;;;;14.47;7.03;;;6.90;99.90;;;;;;5034599;28;20641;-42
2022/03/12 05:16:44;;;;;;;13.57;7.30;;;6.90;99.90;;;;;;5034560;28;20173;-41
2022/03/12 05:19:13;;;;;;;11.10;7.20;;;6.90;99.90;;;;;;5034543;28;20263;-41
2022/03/12 05:21:38;;;;;;;12.53;6.87;;;6.80;99.90;;;;;;5034203;28;20190;-41
2022/03/12 05:24:05;;;;;;;13.03;7.40;;;6.80;99.90;;;;;;5034491;28;20624;-43
2022/03/12 05:26:30;;;;;;;13.80;7.03;;;6.80;99.90;;;;;;5034130;28;20202;-41
2022/03/12 05:28:56;;;;;;;8.47;5.37;;;6.80;99.90;;;;;;5034294;28;20204;-45
2022/03/12 05:31:22;;;;;;;8.73;5.47;;;6.80;99.90;;;;;;5034135;28;20188;-47
2022/03/12 05:33:47;;;;;;;17.27;6.57;;;6.80;99.90;;;;;;5033895;28;20729;-44
2022/03/12 05:36:13;;;;;;;16.33;6.60;;;6.80;99.90;;;;;;5034096;28;20208;-44
2022/03/12 05:38:39;;;;;;;9.90;6.00;;;6.80;99.90;;;;;;5034313;28;20295;-46
2022/03/12 05:41:10;;;;;;;10.83;6.17;;;6.80;99.90;;;;;;5034080;28;20275;-47
2022/03/12 05:43:40;;;;;;;10.90;6.73;;;6.70;99.90;;;;;;5034773;28;20174;-46
2022/03/12 05:46:06;;;;;;;11.37;6.90;;;6.70;99.90;;;;;;5034390;28;20262;-46
2022/03/12 05:48:32;;;;;;;11.17;7.20;;;6.70;99.90;;;;;;5034190;28;20212;-46
2022/03/12 05:50:59;;;;;;;10.90;6.80;;;6.70;99.90;;;;;;5034242;28;20169;-45
2022/03/12 05:53:25;;;;;;;11.13;6.63;;;6.70;99.90;;;;;;5034199;28;20214;-46
2022/03/12 05:55:52;;;;;;;10.40;6.90;;;6.70;99.90;;;;;;5033870;28;20191;-43
2022/03/12 05:58:19;;;;;;;16.13;6.73;;;6.70;99.90;;;;;;5034037;28;20741;-46
2022/03/12 06:00:45;;;;;;;14.70;7.20;;;6.60;99.90;;;;;;5034387;28;20192;-46
2022/03/12 06:03:11;;;;;;;14.60;6.50;;;6.60;99.90;;;;;;5034247;28;20254;-44
2022/03/12 06:05:41;;;;;;;9.13;6.70;;;6.70;99.90;;;;;;5034114;28;20668;-43
2022/03/12 06:08:08;;;;;;;9.23;6.57;;;6.60;99.90;;;;;;5033940;28;20579;-44
2022/03/12 06:10:37;;;;;;;13.40;6.40;;;6.60;99.90;;;;;;5033400;28;20185;-43
2022/03/12 06:13:05;;;;;;;11.60;6.67;;;6.60;99.90;;;;;;5033351;28;20178;-44
2022/03/12 06:15:31;;;;;;;9.93;6.43;;;6.60;99.90;;;;;;5033060;28;20218;-43
2022/03/12 06:17:57;;;;;;;9.63;6.40;;;6.60;99.90;;;;;;5033242;28;20199;-44
2022/03/12 06:20:23;;;;;;;11.67;5.90;;;6.50;99.90;;;;;;5033329;28;20184;-44
2022/03/12 06:22:51;;;;;;;8.33;5.90;;;6.50;99.90;;;;;;5033549;28;20199;-45
2022/03/12 06:25:17;;;;;;;7.87;5.67;;;6.50;99.90;;;;;;5033112;28;20223;-44
2022/03/12 06:27:47;;;;;;;11.33;6.30;;;6.50;99.90;;;;;;5033346;28;20612;-47
2022/03/12 06:30:15;;;;;;;10.07;5.97;;;6.50;99.90;;;;;;5033182;28;20671;-46
2022/03/12 06:32:44;;;;;;;10.60;6.17;;;6.40;99.90;;;;;;5033038;28;20182;-46
2022/03/12 06:35:12;;;;;;;10.33;6.50;;;6.40;99.90;;;;;;5033445;28;20281;-44
2022/03/12 06:37:41;;;;;;;8.87;6.00;;;6.40;99.90;;;;;;5033399;28;20212;-44
2022/03/12 06:40:08;;;;;;;8.57;5.87;;;6.40;99.90;;;;;;5033288;28;20194;-43
2022/03/12 06:42:35;;;;;;;17.70;7.17;;;6.40;99.90;;;;;;5033302;28;20285;-43
2022/03/12 06:45:01;;;;;;;9.97;6.07;;;6.50;99.90;;;;;;5033383;28;20670;-44
2022/03/12 06:47:30;;;;;;;12.37;6.87;;;6.50;99.90;;;;;;5033215;28;20230;-46
2022/03/12 06:50:00;;;;;;;15.77;7.60;;;6.60;99.90;;;;;;5033287;28;20184;-47
2022/03/12 06:52:27;;;;;;;13.67;6.53;;;6.70;99.90;;;;;;5033303;28;20205;-44
2022/03/12 06:54:53;;;;;;;11.07;6.87;;;6.70;99.90;;;;;;5032924;28;20179;-46
2022/03/12 06:57:20;;;;;;;11.50;7.43;;;6.70;99.90;;;;;;5033643;28;20212;-46
2022/03/12 06:59:46;;;;;;;12.43;7.50;;;6.70;99.90;;;;;;5032964;28;20215;-47
2022/03/12 07:02:12;;;;;;;16.23;7.80;;;6.80;99.90;;;;;;5033144;28;20538;-45
2022/03/12 07:04:38;;;;;;;11.33;7.27;;;6.90;99.90;;;;;;5033085;28;20192;-46
2022/03/12 07:07:04;;;;;;;15.47;7.23;;;6.90;99.90;;;;;;5033155;28;20212;-47
2022/03/12 07:09:29;;;;;;;13.73;7.20;;;6.90;99.90;;;;;;5032965;28;20187;-47
2022/03/12 07:11:58;;;;;;;9.97;7.30;;;7.00;99.90;;;;;;5033176;28;20192;-44
2022/03/12 07:14:24;;;;;;;11.13;7.03;;;7.10;99.90;;;;;;5032846;28;20657;-43
2022/03/12 07:16:50;;;;;;;9.40;7.10;;;7.10;99.90;;;;;;5033034;28;20555;-44
2022/03/12 07:19:15;;;;;;;11.40;7.27;;;7.20;99.90;;;;;;5032768;28;20187;-45
2022/03/12 07:21:41;;;;;;;10.70;6.57;;;7.30;99.90;;;;;;5032788;28;20695;-45
2022/03/12 07:24:07;;;;;;;10.23;6.40;;;7.40;99.90;;;;;;5033019;28;20196;-47
2022/03/12 07:26:32;;;;;;;11.77;6.67;;;7.50;99.90;;;;;;5035533;28;20238;-47
2022/03/12 07:28:59;;;;;;;12.50;6.37;;;7.60;99.90;;;;;;5036439;28;20227;-46
2022/03/12 07:31:25;;;;;;;16.73;7.27;;;7.70;99.90;;;;;;5036259;28;20223;-47
2022/03/12 07:33:50;;;;;;;8.80;6.60;;;7.80;99.90;;;;;;5036189;28;20195;-45
2022/03/12 07:36:16;;;;;;;14.13;6.60;;;7.90;99.90;;;;;;5036134;28;20234;-46
2022/03/12 07:38:42;;;;;;;13.70;6.00;;;8.10;99.90;;;;;;5036134;28;20699;-47
2022/03/12 07:41:08;;;;;;;8.13;5.77;;;8.30;99.90;;;;;;5035991;28;20197;-47
2022/03/12 07:43:34;;;;;;;10.43;5.83;;;8.50;99.90;;;;;;5036820;28;20283;-48
2022/03/12 07:46:00;;;;;;;10.23;5.43;;;8.70;99.90;;;;;;5037460;28;20215;-46
2022/03/12 07:48:25;;;;;;;8.77;5.23;;;8.90;99.90;;;;;;5036751;28;20250;-45
2022/03/12 07:50:51;;;;;;;11.47;5.90;;;9.10;99.90;;;;;;5036289;28;20181;-45
2022/03/12 07:53:16;;;;;;;8.37;6.03;;;9.30;99.90;;;;;;5036178;28;20193;-46
2022/03/12 07:55:42;;;;;;;8.43;5.30;;;9.50;99.90;;;;;;5036105;28;20256;-46
2022/03/12 07:58:08;;;;;;;10.37;5.33;;;9.70;99.90;;;;;;5035925;28;20652;-44
2022/03/12 08:00:34;;;;;;;10.53;6.20;;;9.90;99.90;;;;;;5036034;28;20185;-44
2022/03/12 08:02:59;;;;;;;7.10;5.17;;;10.00;99.90;;;;;;5035903;28;20656;-44
2022/03/12 08:05:25;;;;;;;8.00;6.00;;;10.20;99.90;;;;;;5035834;28;20212;-45
2022/03/12 08:07:54;;;;;;;10.10;5.97;;;10.30;99.90;;;;;;5035505;28;20615;-44
2022/03/12 08:10:23;;;;;;;7.43;5.77;;;10.50;99.90;;;;;;5036021;28;20633;-44
2022/03/12 08:12:50;;;;;;;7.50;5.60;;;10.60;99.90;;;;;;5035611;28;20594;-47
2022/03/12 08:15:17;;;;;;;10.53;5.50;;;10.80;99.90;;;;;;5035665;28;20193;-46
2022/03/12 08:17:44;;;;;;;6.83;5.53;;;10.90;99.90;;;;;;5017561;28;20258;-47
2022/03/12 08:20:10;;;;;;;8.93;5.80;;;11.10;99.90;;;;;;5035348;28;20180;-43
2022/03/12 08:22:39;;;;;;;9.07;5.90;;;11.30;99.90;;;;;;5035629;28;20219;-44
2022/03/12 08:25:07;;;;;;;8.67;6.20;;;11.40;99.90;;;;;;5035481;28;20221;-47
2022/03/12 08:27:34;;;;;;;8.30;5.83;;;11.50;99.90;;;;;;5035421;28;20206;-44
2022/03/12 08:30:00;;;;;;;7.73;5.90;;;11.70;99.90;;;;;;5035701;28;20231;-45
2022/03/12 08:32:25;;;;;;;8.47;6.00;;;11.80;99.90;;;;;;5035091;28;20279;-46
2022/03/12 08:34:51;;;;;;;8.77;5.47;;;12.00;99.90;;;;;;5035365;28;20262;-46
2022/03/12 08:37:17;;;;;;;7.43;5.67;;;12.10;99.90;;;;;;5034790;28;20330;-44
2022/03/12 08:39:42;;;;;;;10.33;5.80;;;12.20;99.90;;;;;;5034985;28;20195;-46
2022/03/12 08:42:08;;;;;;;8.73;5.77;;;12.30;99.90;;;;;;5034942;28;20658;-45
2022/03/12 08:44:34;;;;;;;8.43;5.30;;;12.30;99.90;;;;;;5035080;28;20227;-48
2022/03/12 08:47:00;;;;;;;8.13;5.10;;;12.50;99.90;;;;;;5035251;28;20228;-47
2022/03/12 08:49:25;;;;;;;7.70;5.20;;;12.60;99.90;;;;;;5034877;28;20189;-44
2022/03/12 08:51:51;;;;;;;8.93;4.90;;;12.80;99.90;;;;;;5034965;28;20238;-45
2022/03/12 08:54:17;;;;;;;5.50;4.47;;;12.90;99.90;;;;;;5035155;28;20180;-46
2022/03/12 08:56:43;;;;;;;5.40;4.10;;;13.00;99.90;;;;;;5034563;28;20291;-45
2022/03/12 08:59:09;;;;;;;7.80;4.47;;;13.00;99.90;;;;;;5016914;28;20239;-46
2022/03/12 09:01:35;;;;;;;6.93;4.40;;;13.10;99.90;;;;;;5034858;28;20189;-47
2022/03/12 09:04:01;;;;;;;5.73;4.13;;;13.20;99.90;;;;;;5034728;28;20184;-46
2022/03/12 09:06:29;;;;;;;7.00;3.90;;;13.30;99.90;;;;;;5034429;28;20200;-47
2022/03/12 09:08:55;;;;;;;5.73;4.07;;;13.30;99.90;;;;;;5034622;28;20215;-48
2022/03/12 09:11:21;;;;;;;11.40;3.90;;;13.40;99.90;;;;;;5034609;28;20189;-47
2022/03/12 09:13:47;;;;;;;5.13;4.13;;;13.50;99.90;;;;;;5034312;28;20181;-47
2022/03/12 09:16:15;;;;;;;7.47;4.00;;;13.60;99.90;;;;;;5034594;28;20258;-46
2022/03/12 09:18:42;;;;;;;6.20;4.20;;;13.60;99.90;;;;;;5016492;28;20212;-47
2022/03/12 09:21:08;;;;;;;6.17;3.80;;;13.70;99.90;;;;;;5034297;28;20189;-46
2022/03/12 09:23:34;;;;;;;7.33;3.70;;;13.80;99.90;;;;;;5034103;28;20216;-46
2022/03/12 09:26:00;;;;;;;5.87;3.03;;;13.80;99.90;;;;;;5034112;28;20267;-47
2022/03/12 09:28:26;;;;;;;6.10;3.37;;;13.90;99.90;;;;;;5034005;28;20217;-45
2022/03/12 09:30:52;;;;;;;3.70;2.97;;;14.00;99.90;;;;;;5034023;28;20176;-47
2022/03/12 09:33:20;;;;;;;4.63;2.97;;;14.20;99.90;;;;;;5033914;28;20201;-45
2022/03/12 09:35:47;;;;;;;5.70;2.43;;;14.30;99.90;;;;;;5034203;28;20196;-47
2022/03/12 09:38:14;;;;;;;5.67;2.80;;;14.40;99.90;;;;;;5034085;28;20262;-47
2022/03/12 09:40:41;;;;;;;4.67;3.13;;;14.50;99.90;;;;;;5016148;28;20185;-46
2022/03/12 09:43:07;;;;;;;7.57;2.57;;;14.60;99.90;;;;;;5034105;28;20197;-45
2022/03/12 09:45:32;;;;;;;4.90;2.37;;;14.70;99.90;;;;;;5033947;28;20664;-47
2022/03/12 09:47:58;;;;;;;5.20;2.57;;;14.80;99.90;;;;;;5033859;28;20258;-47
2022/03/12 09:50:24;;;;;;;6.03;2.73;;;15.00;99.90;;;;;;5032908;28;20183;-46
2022/03/12 09:52:49;;;;;;;7.13;3.00;;;15.10;99.90;;;;;;5033639;28;20269;-46
2022/03/12 09:55:16;;;;;;;5.13;2.87;;;15.30;99.90;;;;;;5033577;28;20226;-45
2022/03/12 09:57:43;;;;;;;5.33;2.77;;;15.40;99.90;;;;;;5033507;28;20687;-46
2022/03/12 10:00:09;;;;;;;4.60;2.83;;;15.50;99.90;;;;;;5033573;28;20185;-48
2022/03/12 10:02:35;;;;;;;5.93;2.83;;;15.50;99.90;;;;;;5033488;28;20185;-46
2022/03/12 10:05:01;;;;;;;7.87;2.70;;;15.50;99.90;;;;;;5033366;28;20262;-46
2022/03/12 10:07:26;;;;;;;4.70;2.67;;;15.50;99.90;;;;;;5033672;28;20212;-45
2022/03/12 10:09:52;;;;;;;5.63;2.80;;;15.60;99.90;;;;;;5033418;28;20173;-47
2022/03/12 10:12:19;;;;;;;6.20;2.27;;;15.70;99.90;;;;;;5033660;28;20192;-45
2022/03/12 10:14:47;;;;;;;5.33;2.87;;;15.90;99.90;;;;;;5033367;28;20180;-46
2022/03/12 10:17:13;;;;;;;4.90;3.17;;;15.90;99.90;;;;;;5033504;28;20228;-48
2022/03/12 10:19:38;;;;;;;4.70;2.23;;;16.00;99.90;;;;;;5033377;28;20629;-47
2022/03/12 10:22:06;;;;;;;3.33;2.37;;;16.10;99.90;;;;;;5033325;28;20177;-47
2022/03/12 10:24:32;;;;;;;6.37;2.63;;;16.10;99.90;;;;;;5033348;28;20193;-48
2022/03/12 10:26:58;;;;;;;7.73;2.80;;;16.20;99.90;;;;;;5033029;28;20726;-45
2022/03/12 10:29:23;;;;;;;4.93;2.53;;;16.20;99.90;;;;;;5033298;28;20256;-47
2022/03/12 10:31:49;;;;;;;3.97;2.17;;;16.20;99.90;;;;;;5033212;28;20235;-47
2022/03/12 10:34:23;;;;;;;5.60;2.20;;;16.30;99.90;;;;;;5033167;28;20645;-45
2022/03/12 10:36:51;;;;;;;2.60;1.97;;;16.30;99.90;;;;;;5033705;28;20194;-44
2022/03/12 10:39:35;;;;;;;4.00;1.97;;;16.30;99.90;;;;;;5033861;28;20173;-47
2022/03/12 10:42:04;;;;;;;4.83;2.63;;;16.40;99.90;;;;;;5033513;28;20184;-45
2022/03/12 10:44:33;;;;;;;3.47;1.80;;;16.40;99.90;;;;;;5033412;28;20582;-46
2022/03/12 10:46:59;;;;;;;11.30;2.13;;;16.40;99.90;;;;;;5032970;28;20207;-46
2022/03/12 10:49:24;;;;;;;5.87;2.37;;;16.40;99.90;;;;;;5033003;28;20173;-43
2022/03/12 10:51:56;;;;;;;5.00;2.40;;;16.40;99.90;;;;;;5033251;28;20184;-45
2022/03/12 10:54:22;;;;;;;4.63;2.17;;;16.30;99.90;;;;;;5033644;28;20181;-45
2022/03/12 10:56:49;;;;;;;3.83;2.20;;;16.20;99.90;;;;;;5033185;28;20219;-43
2022/03/12 10:59:24;;;;;;;3.87;2.13;;;16.30;99.90;;;;;;5033244;28;20180;-45
2022/03/12 11:01:51;;;;;;;3.90;2.27;;;16.20;99.90;;;;;;5036189;28;20682;-45
2022/03/12 11:04:22;;;;;;;4.57;2.20;;;16.20;99.90;;;;;;5037021;28;20173;-45
2022/03/12 11:06:50;;;;;;;3.67;2.43;;;16.30;99.90;;;;;;5036980;28;20200;-47
2022/03/12 11:09:20;;;;;;;4.17;2.10;;;16.40;99.90;;;;;;5036841;28;20184;-47
2022/03/12 11:11:46;;;;;;;7.80;2.17;;;16.40;99.90;;;;;;5036622;28;20177;-43
2022/03/12 11:14:22;;;;;;;11.40;3.37;;;16.50;99.90;;;;;;5036591;28;20184;-47
2022/03/12 11:16:55;;;;;;;5.23;2.67;;;16.50;99.90;;;;;;5036822;28;20187;-48
2022/03/12 11:19:37;;;;;;;3.93;2.00;;;16.50;99.90;;;;;;5036464;28;20180;-44
2022/03/12 11:22:13;;;;;;;3.33;2.40;;;16.40;99.90;;;;;;5036739;28;20165;-45
2022/03/12 11:24:57;;;;;;;4.70;2.33;;;16.50;99.90;;;;;;5036631;28;20169;-46
2022/03/12 11:27:34;;;;;;;2.87;2.20;;;16.60;99.90;;;;;;5036607;28;20268;-43
2022/03/12 11:30:08;;;;;;;3.67;2.17;;;16.80;99.90;;;;;;5036629;28;20172;-46
2022/03/12 11:32:35;;;;;;;6.57;2.50;;;16.90;99.90;;;;;;5036451;28;20250;-45
2022/03/12 11:35:10;;;;;;;6.53;2.40;;;17.00;99.90;;;;;;5036371;28;20205;-47
2022/03/12 11:37:38;;;;;;;4.63;2.30;;;16.90;99.90;;;;;;5036716;28;20605;-45
2022/03/12 11:40:08;;;;;;;4.50;2.50;;;16.90;99.90;;;;;;5036759;28;20188;-45
2022/03/12 11:42:35;;;;;;;3.50;2.30;;;16.90;99.90;;;;;;5036680;28;20178;-45
2022/03/12 11:45:07;;;;;;;5.57;2.30;;;17.00;99.90;;;;;;5036335;28;20212;-47
2022/03/12 11:47:35;;;;;;;3.57;2.33;;;17.10;99.90;;;;;;5036266;28;20271;-46
2022/03/12 11:50:04;;;;;;;3.93;2.23;;;17.10;99.90;;;;;;5018141;28;20255;-44
2022/03/12 11:52:30;;;;;;;5.17;2.90;;;17.10;99.90;;;;;;5036139;28;20268;-46
2022/03/12 11:54:57;;;;;;;3.10;2.23;;;17.10;99.90;;;;;;5018155;28;20612;-47
2022/03/12 11:57:34;;;;;;;5.03;2.57;;;17.10;99.90;;;;;;5035988;28;20683;-45
2022/03/12 12:00:02;;;;;;;3.43;2.07;;;17.10;99.90;;;;;;5036063;28;20240;-46
2022/03/12 12:02:33;;;;;;;5.57;2.33;;;17.20;99.90;;;;;;5035715;28;20173;-43
2022/03/12 12:05:01;;;;;;;5.07;2.30;;;17.20;99.90;;;;;;5035904;28;20201;-45
2022/03/12 12:07:30;;;;;;;5.27;2.30;;;17.20;99.90;;;;;;5035808;28;20567;-46
2022/03/12 12:09:55;;;;;;;6.10;2.50;;;17.40;99.90;;;;;;5035820;28;20180;-47
2022/03/12 12:12:32;;;;;;;4.73;2.70;;;17.50;99.90;;;;;;5034668;28;20585;-46
2022/03/12 12:14:59;;;;;;;3.70;2.40;;;17.50;99.90;;;;;;5035790;28;20167;-46
2022/03/12 12:17:24;;;;;;;5.97;2.33;;;17.70;99.90;;;;;;5035606;28;20200;-45
2022/03/12 12:19:51;;;;;;;3.63;2.00;;;17.80;99.90;;;;;;5035651;28;20177;-47
2022/03/12 12:22:18;;;;;;;6.17;2.70;;;17.90;99.90;;;;;;5035430;28;20649;-46
2022/03/12 12:24:44;;;;;;;4.37;2.53;;;18.00;99.90;;;;;;5035201;28;20177;-47
2022/03/12 12:27:15;;;;;;;4.07;2.60;;;18.00;99.90;;;;;;5035599;28;20288;-47
2022/03/12 12:29:48;;;;;;;4.63;2.70;;;18.10;99.90;;;;;;5035548;28;20504;-47
2022/03/12 12:32:17;;;;;;;5.27;3.00;;;18.10;99.90;;;;;;5035298;28;20230;-44
2022/03/12 12:35:04;;;;;;;5.00;2.43;;;18.20;99.90;;;;;;5035645;28;20200;-45
2022/03/12 12:37:41;;;;;;;4.07;2.40;;;18.10;99.90;;;;;;5035264;28;20197;-47
2022/03/12 12:40:13;;;;;;;5.90;2.87;;;18.10;99.90;;;;;;5017233;28;20671;-45
2022/03/12 12:42:43;;;;;;;6.13;3.07;;;18.20;99.90;;;;;;5034942;28;20173;-48
2022/03/12 12:45:17;;;;;;;4.60;2.70;;;18.20;99.90;;;;;;5034836;28;20205;-46
2022/03/12 12:47:43;;;;;;;4.83;2.40;;;18.30;99.90;;;;;;5034846;28;20606;-44
2022/03/12 12:50:24;;;;;;;4.23;2.77;;;18.40;99.90;;;;;;5034813;28;20181;-46